Time;durP1;ratioP1;P1;durP2;ratioP2;P2;SDS_P1;SDS_P2;PMS_P1;PMS_P2;Temp;Humidity;BMP_temperature;BMP_pressure;BME280_temperature;BME280_humidity;BME280_pressure;Samples;Min_cycle;Max_cycle;Signal;HPM_P1;HPM_P2
2021/08/20 00:02:03;;;;;;;4.93;3.90;;;;;;;;;;4983215;28;20747;-91
2021/08/20 00:04:30;;;;;;;5.03;3.88;;;;;;;;;;4985411;28;20415;-91
2021/08/20 00:06:56;;;;;;;4.65;3.38;;;;;;;;;;4985544;28;20409;-90
2021/08/20 00:09:24;;;;;;;4.38;3.50;;;;;;;;;;4997226;28;20403;-91
2021/08/20 00:11:51;;;;;;;4.40;3.60;;;;;;;;;;4985219;28;20933;-92
2021/08/20 00:14:18;;;;;;;5.90;4.22;;;;;;;;;;4985203;28;20650;-90
2021/08/20 00:16:47;;;;;;;6.45;4.00;;;;;;;;;;4992443;28;20403;-91
2021/08/20 00:19:14;;;;;;;4.10;3.60;;;;;;;;;;4986191;28;20420;-91
2021/08/20 00:21:41;;;;;;;4.53;3.95;;;;;;;;;;4970668;28;20411;-91
2021/08/20 00:24:10;;;;;;;5.30;3.80;;;;;;;;;;4984555;28;20901;-91
2021/08/20 00:26:37;;;;;;;6.07;4.20;;;;;;;;;;4985223;28;20427;-90
2021/08/20 00:29:04;;;;;;;5.93;4.10;;;;;;;;;;4984712;28;20397;-91
2021/08/20 00:31:31;;;;;;;5.57;3.70;;;;;;;;;;4996522;28;20430;-91
2021/08/20 00:34:00;;;;;;;4.10;3.55;;;;;;;;;;4999111;28;20958;-91
2021/08/20 00:36:27;;;;;;;4.57;3.60;;;;;;;;;;4998935;28;20414;-91
2021/08/20 00:38:54;;;;;;;4.72;3.80;;;;;;;;;;4993599;28;20413;-91
2021/08/20 00:41:21;;;;;;;5.57;3.72;;;;;;;;;;4998232;28;20397;-91
2021/08/20 00:43:48;;;;;;;5.28;3.60;;;;;;;;;;4999333;28;20403;-91
2021/08/20 00:46:15;;;;;;;4.40;3.63;;;;;;;;;;4984936;28;20409;-91
2021/08/20 00:48:42;;;;;;;5.20;3.78;;;;;;;;;;4990404;28;20427;-91
2021/08/20 00:51:17;;;;;;;5.10;3.60;;;;;;;;;;4984401;28;20905;-91
2021/08/20 00:53:44;;;;;;;5.82;3.60;;;;;;;;;;4987881;28;20416;-91
2021/08/20 00:56:11;;;;;;;5.25;3.60;;;;;;;;;;4999097;28;20407;-91
2021/08/20 00:58:38;;;;;;;5.47;3.42;;;;;;;;;;5013505;28;20390;-91
2021/08/20 01:01:05;;;;;;;4.72;3.78;;;;;;;;;;5015164;28;20419;-91
2021/08/20 01:03:33;;;;;;;5.15;3.67;;;;;;;;;;5000877;28;20433;-90
2021/08/20 01:06:15;;;;;;;5.10;3.50;;;;;;;;;;4993005;28;20768;-92
2021/08/20 01:08:48;;;;;;;3.40;3.10;;;;;;;;;;4987679;28;20495;-91
2021/08/20 01:11:28;;;;;;;3.87;3.20;;;;;;;;;;4984162;28;20425;-91
2021/08/20 01:13:55;;;;;;;4.70;3.40;;;;;;;;;;4985675;28;20499;-91
2021/08/20 01:16:22;;;;;;;4.68;3.20;;;;;;;;;;4990226;28;20471;-90
2021/08/20 01:18:49;;;;;;;3.85;3.10;;;;;;;;;;4986976;28;20412;-91
2021/08/20 01:21:18;;;;;;;4.07;3.58;;;;;;;;;;4983564;28;20415;-91
2021/08/20 01:23:46;;;;;;;4.68;3.13;;;;;;;;;;4985497;28;20413;-91
2021/08/20 01:26:14;;;;;;;5.43;3.55;;;;;;;;;;4999750;28;20784;-91
2021/08/20 01:28:42;;;;;;;3.80;3.00;;;;;;;;;;4991801;28;20400;-91
2021/08/20 01:31:11;;;;;;;4.63;3.10;;;;;;;;;;4983871;28;20420;-91
2021/08/20 01:33:39;;;;;;;4.13;3.15;;;;;;;;;;4985001;28;20419;-91
2021/08/20 01:36:08;;;;;;;4.60;3.38;;;;;;;;;;4973462;28;20414;-91
2021/08/20 01:38:45;;;;;;;3.55;3.20;;;;;;;;;;4981543;28;20504;-91
2021/08/20 01:41:11;;;;;;;4.53;3.00;;;;;;;;;;4981622;28;20416;-91
2021/08/20 01:43:40;;;;;;;7.85;3.28;;;;;;;;;;4983796;28;20908;-91
2021/08/20 01:46:07;;;;;;;5.57;3.30;;;;;;;;;;4983201;28;20409;-90
2021/08/20 01:48:33;;;;;;;5.07;3.30;;;;;;;;;;4995985;28;20403;-91
2021/08/20 01:51:01;;;;;;;5.55;3.60;;;;;;;;;;4998677;28;20821;-92
2021/08/20 01:53:28;;;;;;;5.60;3.60;;;;;;;;;;4999452;28;20406;-91
2021/08/20 01:55:55;;;;;;;4.60;3.67;;;;;;;;;;4984935;28;20409;-91
2021/08/20 01:58:22;;;;;;;4.93;3.72;;;;;;;;;;4996684;28;20418;-90
2021/08/20 02:00:50;;;;;;;4.22;3.50;;;;;;;;;;4984035;28;20428;-90
2021/08/20 02:03:17;;;;;;;4.57;3.83;;;;;;;;;;4975417;28;20416;-91
2021/08/20 02:05:44;;;;;;;4.80;3.25;;;;;;;;;;4995346;28;20403;-91
2021/08/20 02:08:11;;;;;;;5.45;3.60;;;;;;;;;;4995249;28;20403;-91
2021/08/20 02:10:37;;;;;;;3.90;3.50;;;;;;;;;;4992975;28;20810;-91
2021/08/20 02:13:04;;;;;;;4.28;3.35;;;;;;;;;;4995439;28;20423;-91
2021/08/20 02:15:31;;;;;;;4.97;3.25;;;;;;;;;;4995421;28;20426;-89
2021/08/20 02:18:00;;;;;;;5.72;3.75;;;;;;;;;;4992402;28;20412;-90
2021/08/20 02:20:27;;;;;;;5.13;3.22;;;;;;;;;;4995054;28;20807;-90
2021/08/20 02:22:54;;;;;;;5.90;3.40;;;;;;;;;;4992945;28;20391;-89
2021/08/20 02:25:21;;;;;;;4.85;3.40;;;;;;;;;;4978454;28;20461;-91
2021/08/20 02:27:48;;;;;;;5.32;3.45;;;;;;;;;;4996569;28;20410;-90
2021/08/20 02:30:14;;;;;;;4.28;3.35;;;;;;;;;;4987741;28;20409;-89
2021/08/20 02:32:41;;;;;;;4.18;3.15;;;;;;;;;;4991852;28;20717;-91
2021/08/20 02:35:11;;;;;;;5.55;3.35;;;;;;;;;;4992281;28;20408;-90
2021/08/20 02:37:38;;;;;;;5.78;3.22;;;;;;;;;;4994756;28;20407;-90
2021/08/20 02:40:06;;;;;;;4.22;3.17;;;;;;;;;;4991917;28;20405;-89
2021/08/20 02:42:33;;;;;;;4.07;3.13;;;;;;;;;;4969671;28;20461;-89
2021/08/20 02:45:00;;;;;;;4.25;3.13;;;;;;;;;;4991889;28;20420;-90
2021/08/20 02:47:26;;;;;;;5.70;3.33;;;;;;;;;;4991612;28;20459;-89
2021/08/20 02:49:53;;;;;;;3.80;2.80;;;;;;;;;;4991808;28;20909;-91
2021/08/20 02:52:22;;;;;;;5.65;3.38;;;;;;;;;;4976223;28;20441;-89
2021/08/20 02:54:49;;;;;;;4.40;3.00;;;;;;;;;;4993393;28;20415;-91
2021/08/20 02:57:16;;;;;;;3.80;3.03;;;;;;;;;;4992894;28;20415;-91
2021/08/20 02:59:43;;;;;;;4.57;3.17;;;;;;;;;;4996337;28;20407;-91
2021/08/20 03:02:09;;;;;;;3.85;3.25;;;;;;;;;;4995700;28;20412;-91
2021/08/20 03:04:36;;;;;;;3.67;2.78;;;;;;;;;;4998814;28;20707;-91
2021/08/20 03:07:03;;;;;;;4.45;3.03;;;;;;;;;;4999043;28;20417;-91
2021/08/20 03:09:32;;;;;;;3.95;3.20;;;;;;;;;;4995002;28;20409;-91
2021/08/20 03:11:59;;;;;;;5.57;3.17;;;;;;;;;;4998362;28;20411;-92
2021/08/20 03:14:25;;;;;;;3.22;2.92;;;;;;;;;;4995627;28;20419;-91
2021/08/20 03:16:52;;;;;;;3.80;2.85;;;;;;;;;;4997169;28;20805;-91
2021/08/20 03:19:19;;;;;;;4.47;3.00;;;;;;;;;;4992547;28;20424;-91
2021/08/20 03:21:46;;;;;;;4.40;2.60;;;;;;;;;;4996115;28;20419;-91
2021/08/20 03:24:13;;;;;;;4.07;2.80;;;;;;;;;;4996959;28;20417;-91
2021/08/20 03:26:41;;;;;;;3.25;2.90;;;;;;;;;;4995040;28;20943;-91
2021/08/20 03:29:08;;;;;;;5.85;3.40;;;;;;;;;;4997743;28;20403;-91
2021/08/20 03:31:35;;;;;;;5.07;3.30;;;;;;;;;;4977355;28;20408;-91
2021/08/20 03:34:02;;;;;;;4.82;3.60;;;;;;;;;;4994340;28;20427;-91
2021/08/20 03:36:29;;;;;;;4.03;3.37;;;;;;;;;;4997308;28;20415;-91
2021/08/20 03:38:56;;;;;;;4.57;3.60;;;;;;;;;;4991301;28;20464;-91
2021/08/20 03:41:23;;;;;;;4.43;3.58;;;;;;;;;;4993670;28;20410;-91
2021/08/20 03:43:52;;;;;;;5.80;3.55;;;;;;;;;;4994947;28;20412;-91
2021/08/20 03:46:18;;;;;;;4.47;3.70;;;;;;;;;;4995598;28;20798;-91
2021/08/20 03:48:45;;;;;;;5.22;3.78;;;;;;;;;;4995527;28;20421;-91
2021/08/20 03:51:13;;;;;;;6.28;3.58;;;;;;;;;;4997502;28;20403;-91
2021/08/20 03:53:40;;;;;;;5.53;3.50;;;;;;;;;;4997161;28;20427;-91
2021/08/20 03:56:07;;;;;;;4.80;3.57;;;;;;;;;;4994490;28;20951;-91
2021/08/20 03:58:34;;;;;;;4.95;3.60;;;;;;;;;;4997650;28;20415;-91
2021/08/20 04:01:06;;;;;;;5.30;3.57;;;;;;;;;;4994092;28;20405;-91
2021/08/20 04:03:33;;;;;;;5.90;3.67;;;;;;;;;;4989332;28;20525;-91
2021/08/20 04:06:00;;;;;;;5.68;4.50;;;;;;;;;;4991617;28;20425;-91
2021/08/20 04:08:27;;;;;;;7.03;4.90;;;;;;;;;;4988810;28;20423;-91
2021/08/20 04:10:54;;;;;;;7.13;4.43;;;;;;;;;;4991515;28;20412;-90
2021/08/20 04:13:21;;;;;;;5.40;4.20;;;;;;;;;;4986850;28;20425;-91
2021/08/20 04:15:48;;;;;;;4.93;3.97;;;;;;;;;;4970021;28;20459;-91
2021/08/20 04:18:16;;;;;;;4.50;3.97;;;;;;;;;;4990529;28;20417;-91
2021/08/20 04:20:43;;;;;;;4.60;3.40;;;;;;;;;;4987555;28;20813;-91
2021/08/20 04:23:10;;;;;;;5.97;3.50;;;;;;;;;;4986059;28;20561;-90
2021/08/20 04:25:37;;;;;;;5.03;3.25;;;;;;;;;;4997984;28;20410;-90
2021/08/20 04:28:05;;;;;;;3.70;3.20;;;;;;;;;;4986692;28;20415;-90
2021/08/20 04:30:32;;;;;;;4.53;3.05;;;;;;;;;;4987153;28;20409;-91
2021/08/20 04:33:00;;;;;;;5.07;3.50;;;;;;;;;;4990409;28;20432;-89
2021/08/20 04:35:29;;;;;;;5.88;3.35;;;;;;;;;;4985280;28;20412;-90
2021/08/20 04:37:56;;;;;;;6.50;3.50;;;;;;;;;;4983009;28;20419;-90
2021/08/20 04:40:23;;;;;;;6.25;3.35;;;;;;;;;;4970531;28;20900;-90
2021/08/20 04:42:50;;;;;;;6.43;3.63;;;;;;;;;;4983824;28;20405;-90
2021/08/20 04:45:18;;;;;;;5.60;3.58;;;;;;;;;;4993399;28;20421;-89
2021/08/20 04:47:45;;;;;;;4.32;3.10;;;;;;;;;;4987101;28;20420;-91
2021/08/20 04:50:13;;;;;;;4.60;3.22;;;;;;;;;;4997346;28;20405;-89
2021/08/20 04:52:42;;;;;;;5.10;3.20;;;;;;;;;;5002357;28;20425;-89
2021/08/20 04:55:10;;;;;;;4.68;3.28;;;;;;;;;;5018593;28;20395;-89
2021/08/20 04:57:36;;;;;;;5.47;3.40;;;;;;;;;;5015382;28;20413;-91
2021/08/20 05:00:08;;;;;;;4.22;3.20;;;;;;;;;;5000833;28;20447;-91
2021/08/20 05:02:36;;;;;;;6.03;3.70;;;;;;;;;;4985803;28;20413;-91
2021/08/20 05:05:05;;;;;;;4.50;3.30;;;;;;;;;;4989994;28;20450;-89
2021/08/20 05:07:35;;;;;;;7.43;4.60;;;;;;;;;;4989711;28;20783;-91
2021/08/20 05:10:06;;;;;;;4.38;3.70;;;;;;;;;;4989292;28;20429;-91
2021/08/20 05:12:33;;;;;;;5.20;3.13;;;;;;;;;;4992735;28;20446;-91
2021/08/20 05:15:00;;;;;;;5.50;3.40;;;;;;;;;;4980817;28;20431;-91
2021/08/20 05:17:27;;;;;;;5.80;3.28;;;;;;;;;;4996804;28;20881;-91
2021/08/20 05:19:54;;;;;;;5.60;3.35;;;;;;;;;;4983533;28;20427;-91
2021/08/20 05:22:21;;;;;;;9.25;3.75;;;;;;;;;;4982695;28;20417;-91
2021/08/20 05:24:48;;;;;;;6.93;3.83;;;;;;;;;;4983448;28;20690;-91
2021/08/20 05:27:16;;;;;;;6.63;3.95;;;;;;;;;;4993462;28;20985;-91
2021/08/20 05:29:43;;;;;;;5.88;3.80;;;;;;;;;;4990385;28;20413;-91
2021/08/20 05:32:10;;;;;;;5.77;3.67;;;;;;;;;;4991110;28;20893;-91
2021/08/20 05:34:37;;;;;;;6.15;3.90;;;;;;;;;;4987181;28;20770;-78
2021/08/20 05:37:04;;;;;;;7.00;3.80;;;;;;;;;;4998642;28;20431;-89
2021/08/20 05:39:31;;;;;;;5.18;3.80;;;;;;;;;;4993680;28;20419;-91
2021/08/20 05:41:58;;;;;;;6.03;4.10;;;;;;;;;;4999640;28;20481;-92
2021/08/20 05:44:26;;;;;;;5.55;3.97;;;;;;;;;;4983809;28;20404;-91
2021/08/20 05:46:53;;;;;;;4.95;3.70;;;;;;;;;;4997763;28;20406;-91
2021/08/20 05:49:20;;;;;;;5.43;3.90;;;;;;;;;;4996244;28;20414;-91
2021/08/20 05:51:47;;;;;;;5.80;3.90;;;;;;;;;;4985498;28;20404;-91
2021/08/20 05:54:13;;;;;;;5.70;3.85;;;;;;;;;;4985300;28;20431;-90
2021/08/20 05:56:40;;;;;;;6.53;4.00;;;;;;;;;;4985475;28;20975;-91
2021/08/20 05:59:08;;;;;;;5.38;3.55;;;;;;;;;;4994112;28;20444;-90
2021/08/20 06:01:36;;;;;;;8.80;3.90;;;;;;;;;;4994370;28;20542;-90
2021/08/20 06:04:04;;;;;;;5.30;3.67;;;;;;;;;;4979576;28;20421;-91
2021/08/20 06:06:31;;;;;;;7.17;3.77;;;;;;;;;;5005812;28;20411;-91
2021/08/20 06:08:58;;;;;;;5.20;3.35;;;;;;;;;;4979166;28;20414;-91
2021/08/20 06:11:25;;;;;;;5.63;3.22;;;;;;;;;;4993293;28;20404;-91
2021/08/20 06:13:52;;;;;;;3.38;2.97;;;;;;;;;;4986169;28;20431;-92
2021/08/20 06:16:19;;;;;;;3.85;3.13;;;;;;;;;;4986180;28;20492;-92
2021/08/20 06:18:47;;;;;;;4.30;3.05;;;;;;;;;;4985639;28;20885;-91
2021/08/20 06:21:14;;;;;;;4.78;3.50;;;;;;;;;;4985752;28;20431;-90
2021/08/20 06:23:41;;;;;;;5.32;3.13;;;;;;;;;;4986257;28;20424;-90
2021/08/20 06:26:08;;;;;;;4.38;3.25;;;;;;;;;;4991025;28;20941;-91
2021/08/20 06:28:35;;;;;;;5.18;2.97;;;;;;;;;;4991269;28;20415;-91
2021/08/20 06:31:04;;;;;;;4.57;3.33;;;;;;;;;;4980981;28;20503;-90
2021/08/20 06:33:31;;;;;;;4.13;3.08;;;;;;;;;;4990161;28;20424;-90
2021/08/20 06:35:59;;;;;;;4.75;3.13;;;;;;;;;;5001102;28;20420;-91
2021/08/20 06:38:26;;;;;;;4.80;3.20;;;;;;;;;;4996474;28;20412;-91
2021/08/20 06:40:53;;;;;;;4.80;3.30;;;;;;;;;;4996610;28;20444;-91
2021/08/20 06:43:20;;;;;;;6.30;3.47;;;;;;;;;;5006175;28;20465;-91
2021/08/20 06:45:48;;;;;;;4.95;3.20;;;;;;;;;;4992515;28;20413;-91
2021/08/20 06:48:15;;;;;;;4.13;3.22;;;;;;;;;;5002563;28;20404;-91
2021/08/20 06:50:43;;;;;;;4.37;3.40;;;;;;;;;;4999369;28;21007;-91
2021/08/20 06:53:12;;;;;;;4.43;3.20;;;;;;;;;;4986259;28;20432;-91
2021/08/20 06:55:39;;;;;;;4.60;3.40;;;;;;;;;;4997511;28;20414;-91
2021/08/20 06:58:07;;;;;;;5.13;3.47;;;;;;;;;;5003960;28;20418;-91
2021/08/20 07:00:34;;;;;;;4.18;3.30;;;;;;;;;;4994803;28;20414;-96
2021/08/20 07:03:00;;;;;;;4.95;3.35;;;;;;;;;;4993090;28;20405;-82
2021/08/20 07:05:27;;;;;;;5.38;3.42;;;;;;;;;;4981965;28;20427;-82
2021/08/20 07:07:54;;;;;;;3.97;3.38;;;;;;;;;;5000886;28;20427;-82
2021/08/20 07:10:22;;;;;;;6.45;3.22;;;;;;;;;;4993014;28;20404;-91
2021/08/20 07:12:49;;;;;;;4.38;2.90;;;;;;;;;;4988813;28;20463;-91
2021/08/20 07:15:16;;;;;;;4.63;3.30;;;;;;;;;;5002857;28;20412;-92
2021/08/20 07:17:43;;;;;;;6.20;3.60;;;;;;;;;;5005555;28;20414;-91
2021/08/20 07:20:11;;;;;;;5.47;3.40;;;;;;;;;;5004084;28;20424;-91
2021/08/20 07:22:38;;;;;;;5.28;3.45;;;;;;;;;;4996770;28;20401;-91
2021/08/20 07:25:06;;;;;;;4.40;3.15;;;;;;;;;;4982562;28;20856;-91
2021/08/20 07:27:34;;;;;;;3.83;2.78;;;;;;;;;;4978356;28;20463;-91
2021/08/20 07:30:01;;;;;;;5.97;3.00;;;;;;;;;;4994852;28;20407;-90
2021/08/20 07:32:28;;;;;;;3.38;2.45;;;;;;;;;;4995909;28;20413;-91
2021/08/20 07:34:55;;;;;;;3.90;2.63;;;;;;;;;;4990430;28;20464;-91
2021/08/20 07:37:22;;;;;;;3.23;2.57;;;;;;;;;;4992467;28;21213;-91
2021/08/20 07:39:49;;;;;;;3.47;2.70;;;;;;;;;;4991979;28;20416;-89
2021/08/20 07:42:18;;;;;;;2.85;2.20;;;;;;;;;;4991824;28;20396;-89
2021/08/20 07:44:46;;;;;;;3.92;2.30;;;;;;;;;;4990946;28;20515;-89
2021/08/20 07:47:13;;;;;;;4.53;2.78;;;;;;;;;;4986890;28;20408;-92
2021/08/20 07:49:40;;;;;;;4.97;2.65;;;;;;;;;;4992352;28;20404;-91
2021/08/20 07:52:07;;;;;;;3.50;2.45;;;;;;;;;;4978098;28;20416;-91
2021/08/20 07:54:34;;;;;;;3.25;2.58;;;;;;;;;;4981869;28;20884;-91
2021/08/20 07:57:01;;;;;;;3.45;2.50;;;;;;;;;;4985261;28;20403;-90
2021/08/20 07:59:28;;;;;;;3.60;2.55;;;;;;;;;;4986525;28;20411;-90
2021/08/20 08:01:57;;;;;;;3.75;2.50;;;;;;;;;;4988037;28;20420;-91
2021/08/20 08:04:24;;;;;;;3.70;2.53;;;;;;;;;;4993793;28;20416;-91
2021/08/20 08:06:50;;;;;;;3.08;2.20;;;;;;;;;;4994446;28;20402;-93
2021/08/20 08:09:17;;;;;;;4.97;2.50;;;;;;;;;;4999264;28;20415;-91
2021/08/20 08:11:44;;;;;;;3.67;2.67;;;;;;;;;;4997479;28;20409;-92
2021/08/20 08:14:11;;;;;;;3.58;2.40;;;;;;;;;;4995268;28;20860;-91
2021/08/20 08:16:41;;;;;;;4.10;2.15;;;;;;;;;;4991628;28;20409;-90
2021/08/20 08:19:09;;;;;;;3.08;2.55;;;;;;;;;;4991720;28;20405;-92
2021/08/20 08:21:37;;;;;;;5.05;2.75;;;;;;;;;;4970314;28;20408;-91
2021/08/20 08:24:05;;;;;;;4.63;2.30;;;;;;;;;;4991572;28;20411;-92
2021/08/20 08:26:32;;;;;;;3.47;2.25;;;;;;;;;;4996567;28;20416;-91
2021/08/20 08:28:59;;;;;;;4.18;2.55;;;;;;;;;;4989719;28;20412;-92
2021/08/20 08:31:26;;;;;;;2.53;2.10;;;;;;;;;;4994621;28;20413;-92
2021/08/20 08:33:53;;;;;;;3.20;2.30;;;;;;;;;;4997148;28;20881;-91
2021/08/20 08:36:21;;;;;;;4.40;2.65;;;;;;;;;;4993957;28;20413;-92
2021/08/20 08:38:49;;;;;;;2.90;2.20;;;;;;;;;;4989953;28;20879;-92
2021/08/20 08:41:18;;;;;;;4.13;2.70;;;;;;;;;;4997621;28;20415;-91
2021/08/20 08:43:45;;;;;;;4.03;2.67;;;;;;;;;;4991618;28;20530;-91
2021/08/20 08:46:19;;;;;;;2.80;2.45;;;;;;;;;;4987867;28;20496;-91
2021/08/20 08:48:46;;;;;;;3.53;2.53;;;;;;;;;;4993599;28;20412;-92
2021/08/20 08:51:14;;;;;;;3.75;2.60;;;;;;;;;;4987961;28;20757;-91
2021/08/20 08:53:42;;;;;;;3.13;2.50;;;;;;;;;;4998307;28;20426;-92
2021/08/20 08:56:09;;;;;;;5.32;2.65;;;;;;;;;;4973255;28;20405;-92
2021/08/20 08:58:37;;;;;;;3.97;2.60;;;;;;;;;;4980154;28;20422;-91
2021/08/20 09:01:28;;;;;;;2.70;2.20;;;;;;;;;;4983250;28;20420;-92
2021/08/20 09:04:16;;;;;;;4.38;2.67;;;;;;;;;;4997895;28;20949;-92
2021/08/20 09:06:44;;;;;;;3.25;2.38;;;;;;;;;;4999487;28;20404;-92
2021/08/20 09:09:15;;;;;;;3.27;2.40;;;;;;;;;;5002532;28;20405;-91
2021/08/20 09:11:43;;;;;;;3.38;2.38;;;;;;;;;;4999282;28;20407;-92
2021/08/20 09:14:11;;;;;;;3.42;2.50;;;;;;;;;;4998208;28;20440;-92
2021/08/20 09:16:40;;;;;;;4.70;2.83;;;;;;;;;;4992420;28;20453;-92
2021/08/20 09:19:14;;;;;;;4.40;2.40;;;;;;;;;;5000157;28;20576;-90
2021/08/20 09:21:42;;;;;;;3.42;2.50;;;;;;;;;;4984705;28;20425;-90
2021/08/20 09:24:35;;;;;;;3.97;2.33;;;;;;;;;;4995986;28;20460;-90
2021/08/20 09:27:35;;;;;;;4.10;2.75;;;;;;;;;;4998919;28;20411;-91
2021/08/20 09:30:07;;;;;;;3.42;2.65;;;;;;;;;;4904557;29;20973;-78
2021/08/20 09:32:35;;;;;;;4.05;2.42;;;;;;;;;;4899527;29;20427;-85
2021/08/20 09:35:02;;;;;;;3.80;2.57;;;;;;;;;;4966075;23;20429;-86
2021/08/20 09:37:31;;;;;;;4.60;2.78;;;;;;;;;;4979627;28;20415;-86
2021/08/20 09:40:03;;;;;;;3.72;2.78;;;;;;;;;;4963178;28;20446;-87
2021/08/20 09:42:30;;;;;;;3.03;2.67;;;;;;;;;;4963273;28;20418;-87
2021/08/20 09:45:15;;;;;;;3.80;2.50;;;;;;;;;;4963058;28;20413;-87
2021/08/20 09:47:44;;;;;;;3.63;2.45;;;;;;;;;;4965897;28;20485;-87
2021/08/20 09:50:11;;;;;;;3.45;2.40;;;;;;;;;;4975367;28;20418;-85
2021/08/20 09:52:38;;;;;;;3.65;2.75;;;;;;;;;;4963912;28;20406;-87
2021/08/20 09:55:08;;;;;;;4.10;2.70;;;;;;;;;;4975469;28;20436;-85
2021/08/20 09:57:38;;;;;;;4.50;2.53;;;;;;;;;;4960588;28;20482;-85
2021/08/20 10:00:08;;;;;;;3.17;2.40;;;;;;;;;;4952922;28;20414;-86
2021/08/20 10:02:37;;;;;;;4.97;2.53;;;;;;;;;;4964246;28;20487;-87
2021/08/20 10:05:05;;;;;;;3.50;2.40;;;;;;;;;;4960252;28;20410;-87
2021/08/20 10:07:37;;;;;;;2.70;2.47;;;;;;;;;;4969865;28;20984;-85
2021/08/20 10:10:08;;;;;;;4.03;2.63;;;;;;;;;;4965065;28;20699;-86
2021/08/20 10:12:40;;;;;;;3.40;2.40;;;;;;;;;;4962315;28;20716;-87
2021/08/20 10:15:08;;;;;;;3.07;2.40;;;;;;;;;;4960076;28;20517;-87
2021/08/20 10:17:36;;;;;;;4.20;2.53;;;;;;;;;;4954565;28;20425;-87
2021/08/20 10:20:04;;;;;;;2.97;2.40;;;;;;;;;;4960197;28;20473;-86
2021/08/20 10:22:31;;;;;;;4.40;2.50;;;;;;;;;;4971154;28;20418;-86
2021/08/20 10:24:59;;;;;;;4.35;2.70;;;;;;;;;;4964537;28;20487;-85
2021/08/20 10:27:27;;;;;;;5.47;2.80;;;;;;;;;;4968770;28;20408;-85
2021/08/20 10:29:54;;;;;;;3.63;2.40;;;;;;;;;;4955509;28;20467;-84
2021/08/20 10:32:21;;;;;;;4.80;2.40;;;;;;;;;;4955131;28;20427;-86
2021/08/20 10:34:48;;;;;;;3.00;2.20;;;;;;;;;;4953792;28;20508;-85
2021/08/20 10:37:17;;;;;;;3.63;2.27;;;;;;;;;;4954502;28;20416;-85
2021/08/20 10:39:45;;;;;;;2.90;2.40;;;;;;;;;;4954971;28;20416;-85
2021/08/20 10:42:13;;;;;;;4.80;2.30;;;;;;;;;;4959590;28;20412;-85
2021/08/20 10:44:43;;;;;;;3.10;2.20;;;;;;;;;;4954285;28;20412;-85
2021/08/20 10:47:22;;;;;;;2.90;2.60;;;;;;;;;;4951366;28;21455;-85
2021/08/20 10:49:50;;;;;;;4.40;2.60;;;;;;;;;;4952512;28;21433;-84
2021/08/20 10:52:29;;;;;;;4.87;2.60;;;;;;;;;;4972284;28;20943;-85
2021/08/20 10:55:27;;;;;;;3.22;2.50;;;;;;;;;;4972626;28;20793;-85
2021/08/20 10:58:11;;;;;;;2.63;2.20;;;;;;;;;;4968886;28;20416;-86
2021/08/20 11:00:55;;;;;;;3.45;2.60;;;;;;;;;;4973629;28;20411;-85
2021/08/20 11:03:41;;;;;;;2.60;2.35;;;;;;;;;;4969803;28;20500;-86
2021/08/20 11:06:08;;;;;;;4.50;2.40;;;;;;;;;;4960023;28;20499;-85
2021/08/20 11:08:35;;;;;;;4.30;2.70;;;;;;;;;;4960664;28;21408;-85
2021/08/20 11:11:03;;;;;;;3.60;2.40;;;;;;;;;;4957596;28;20493;-85
2021/08/20 11:13:30;;;;;;;3.58;2.55;;;;;;;;;;4952063;28;20430;-85
2021/08/20 11:16:01;;;;;;;2.97;2.50;;;;;;;;;;4950981;28;20531;-85
2021/08/20 11:18:41;;;;;;;3.37;2.53;;;;;;;;;;4953043;28;20416;-85
2021/08/20 11:21:08;;;;;;;3.20;2.50;;;;;;;;;;4953305;28;20909;-85
2021/08/20 11:23:35;;;;;;;3.42;2.60;;;;;;;;;;4952010;28;20414;-85
2021/08/20 11:26:04;;;;;;;3.60;2.40;;;;;;;;;;4956870;28;20417;-85
2021/08/20 11:28:34;;;;;;;3.28;2.20;;;;;;;;;;4955513;28;20419;-86
2021/08/20 11:31:05;;;;;;;2.78;2.13;;;;;;;;;;4960843;28;20764;-86
2021/08/20 11:33:33;;;;;;;3.40;2.10;;;;;;;;;;4960036;28;20941;-85
2021/08/20 11:36:01;;;;;;;3.70;2.15;;;;;;;;;;4959369;28;20434;-86
2021/08/20 11:38:34;;;;;;;3.70;2.22;;;;;;;;;;4963156;28;20417;-85
2021/08/20 11:41:05;;;;;;;2.60;2.20;;;;;;;;;;4981030;28;20902;-86
2021/08/20 11:43:32;;;;;;;2.75;2.25;;;;;;;;;;4978354;28;21277;-86
2021/08/20 11:46:03;;;;;;;2.87;2.40;;;;;;;;;;4954102;28;20495;-86
2021/08/20 11:48:32;;;;;;;2.60;2.10;;;;;;;;;;4969251;28;20649;-86
2021/08/20 11:51:01;;;;;;;3.15;2.08;;;;;;;;;;4973917;28;20889;-86
2021/08/20 11:53:28;;;;;;;3.20;2.00;;;;;;;;;;4981148;28;20456;-85
2021/08/20 11:56:09;;;;;;;2.75;2.00;;;;;;;;;;4951864;28;20914;-85
2021/08/20 11:58:37;;;;;;;2.40;1.95;;;;;;;;;;4955270;28;20894;-86
2021/08/20 12:01:05;;;;;;;3.20;2.08;;;;;;;;;;4955526;28;20458;-84
2021/08/20 12:03:35;;;;;;;3.10;1.90;;;;;;;;;;4955027;28;20409;-87
2021/08/20 12:06:08;;;;;;;2.90;2.10;;;;;;;;;;4955757;28;20419;-86
2021/08/20 12:08:36;;;;;;;2.97;1.80;;;;;;;;;;4953838;28;20417;-85
2021/08/20 12:11:03;;;;;;;2.47;1.98;;;;;;;;;;4954898;28;20416;-86
2021/08/20 12:13:30;;;;;;;2.25;1.95;;;;;;;;;;4963350;28;20426;-86
2021/08/20 12:15:57;;;;;;;2.07;1.80;;;;;;;;;;4961565;28;20501;-85
2021/08/20 12:18:27;;;;;;;2.58;2.20;;;;;;;;;;4965912;28;20516;-86
2021/08/20 12:20:55;;;;;;;3.58;1.80;;;;;;;;;;4960338;28;20421;-88
2021/08/20 12:23:22;;;;;;;3.40;1.65;;;;;;;;;;4963545;28;20418;-85
2021/08/20 12:25:50;;;;;;;21.33;17.60;;;;;;;;;;4964496;28;20418;-86
2021/08/20 12:28:18;;;;;;;10.50;4.95;;;;;;;;;;4958396;28;20475;-86
2021/08/20 12:30:47;;;;;;;3.05;1.90;;;;;;;;;;4964619;28;20442;-86
2021/08/20 12:33:14;;;;;;;2.20;1.70;;;;;;;;;;4965997;28;20770;-86
2021/08/20 12:35:52;;;;;;;2.58;1.70;;;;;;;;;;4958244;28;20497;-84
2021/08/20 12:38:21;;;;;;;3.08;1.90;;;;;;;;;;4967642;28;20520;-87
2021/08/20 12:40:50;;;;;;;2.20;2.00;;;;;;;;;;4961390;28;20411;-86
2021/08/20 12:43:25;;;;;;;2.58;2.00;;;;;;;;;;4964499;28;20417;-85
2021/08/20 12:46:18;;;;;;;3.95;2.60;;;;;;;;;;4959471;28;20409;-85
2021/08/20 12:49:01;;;;;;;3.80;2.10;;;;;;;;;;4938120;28;20469;-86
2021/08/20 12:51:30;;;;;;;3.50;2.35;;;;;;;;;;4955564;28;20426;-86
2021/08/20 12:54:02;;;;;;;4.20;2.10;;;;;;;;;;4959899;28;20417;-85
2021/08/20 12:56:31;;;;;;;2.60;2.10;;;;;;;;;;4957120;28;20556;-86
2021/08/20 12:59:00;;;;;;;2.95;2.10;;;;;;;;;;4959652;28;20410;-85
2021/08/20 13:01:27;;;;;;;3.17;1.95;;;;;;;;;;4957266;28;20490;-87
2021/08/20 13:03:54;;;;;;;2.90;2.03;;;;;;;;;;4958844;28;20414;-86
2021/08/20 13:06:21;;;;;;;2.92;2.00;;;;;;;;;;4959529;28;20400;-85
2021/08/20 13:08:50;;;;;;;3.00;2.00;;;;;;;;;;4958415;28;20419;-86
2021/08/20 13:11:18;;;;;;;4.80;2.20;;;;;;;;;;4963167;28;20511;-88
2021/08/20 13:13:45;;;;;;;7.43;2.63;;;;;;;;;;4965874;28;20416;-85
2021/08/20 13:16:12;;;;;;;3.20;2.03;;;;;;;;;;4965951;28;20538;-87
2021/08/20 13:18:39;;;;;;;2.87;2.17;;;;;;;;;;4961144;28;20418;-85
2021/08/20 13:21:06;;;;;;;3.17;2.05;;;;;;;;;;4964232;28;20429;-87
2021/08/20 13:23:33;;;;;;;3.13;2.22;;;;;;;;;;4948143;28;20421;-85
2021/08/20 13:26:04;;;;;;;2.53;2.05;;;;;;;;;;4958173;28;20920;-85
2021/08/20 13:28:31;;;;;;;2.20;2.00;;;;;;;;;;4953701;28;21250;-86
2021/08/20 13:30:58;;;;;;;3.45;2.08;;;;;;;;;;4962495;28;20418;-86
2021/08/20 13:33:25;;;;;;;4.07;2.22;;;;;;;;;;4963820;28;20475;-86
2021/08/20 13:35:52;;;;;;;3.38;2.10;;;;;;;;;;4958984;28;20418;-86
2021/08/20 13:38:19;;;;;;;2.65;2.10;;;;;;;;;;4960925;28;20427;-86
2021/08/20 13:40:46;;;;;;;3.28;2.10;;;;;;;;;;4960782;28;20410;-86
2021/08/20 13:43:14;;;;;;;3.10;2.20;;;;;;;;;;4961876;28;20417;-86
2021/08/20 13:45:43;;;;;;;2.10;1.90;;;;;;;;;;4960807;28;20418;-86
2021/08/20 13:48:11;;;;;;;2.40;2.17;;;;;;;;;;4959142;28;20419;-87
2021/08/20 13:50:38;;;;;;;3.43;2.20;;;;;;;;;;4961159;28;20414;-87
2021/08/20 13:53:05;;;;;;;4.30;2.30;;;;;;;;;;4962785;28;20425;-86
2021/08/20 13:55:34;;;;;;;2.20;1.93;;;;;;;;;;4961792;28;20994;-86
2021/08/20 13:58:01;;;;;;;2.40;2.20;;;;;;;;;;4962187;28;20416;-88
2021/08/20 14:00:29;;;;;;;3.17;2.17;;;;;;;;;;4961909;28;20446;-88
2021/08/20 14:02:56;;;;;;;2.45;2.00;;;;;;;;;;4961474;28;20410;-86
2021/08/20 14:05:23;;;;;;;2.60;2.22;;;;;;;;;;4962262;28;20933;-87
2021/08/20 14:07:50;;;;;;;2.58;2.00;;;;;;;;;;4962203;28;20922;-86
2021/08/20 14:10:17;;;;;;;4.13;2.00;;;;;;;;;;4963006;28;20415;-85
2021/08/20 14:12:44;;;;;;;2.42;2.00;;;;;;;;;;4961791;28;20410;-86
2021/08/20 14:15:11;;;;;;;2.50;2.30;;;;;;;;;;4960304;28;20426;-87
2021/08/20 14:17:40;;;;;;;3.05;2.00;;;;;;;;;;4959427;28;20464;-86
2021/08/20 14:20:08;;;;;;;3.88;2.00;;;;;;;;;;4962892;28;20472;-87
2021/08/20 14:22:36;;;;;;;2.63;2.15;;;;;;;;;;4956012;28;20413;-86
2021/08/20 14:25:04;;;;;;;2.40;2.03;;;;;;;;;;4962660;28;20418;-88
2021/08/20 14:27:30;;;;;;;3.13;2.20;;;;;;;;;;4960151;28;21096;-86
2021/08/20 14:29:57;;;;;;;2.65;2.00;;;;;;;;;;4961126;28;20419;-87
2021/08/20 14:32:24;;;;;;;2.25;1.98;;;;;;;;;;4957308;28;20406;-86
2021/08/20 14:34:52;;;;;;;2.22;2.03;;;;;;;;;;4959007;28;20414;-86
2021/08/20 14:37:19;;;;;;;2.42;2.10;;;;;;;;;;4963140;28;20424;-86
2021/08/20 14:39:46;;;;;;;2.75;2.08;;;;;;;;;;4959729;28;20418;-88
2021/08/20 14:42:13;;;;;;;3.13;2.03;;;;;;;;;;4961517;28;20910;-88
2021/08/20 14:44:40;;;;;;;2.83;2.10;;;;;;;;;;4956776;28;20428;-86
2021/08/20 14:47:06;;;;;;;3.60;2.20;;;;;;;;;;4956642;28;20417;-88
2021/08/20 14:49:33;;;;;;;2.80;2.03;;;;;;;;;;4960123;28;20403;-87
2021/08/20 14:52:01;;;;;;;4.40;2.50;;;;;;;;;;4960824;28;20413;-87